Time;durP1;ratioP1;P1;durP2;ratioP2;P2;SDS_P1;SDS_P2;PMS_P1;PMS_P2;Temp;Humidity;BMP_temperature;BMP_pressure;BME280_temperature;BME280_humidity;BME280_pressure;Samples;Min_cycle;Max_cycle;Signal;HPM_P1;HPM_P2
2023/01/15 00:01:34;;;;;;;5.45;0.95;;;6.40;99.90;;;;;;5008667;28;20045;-71
2023/01/15 00:04:04;;;;;;;4.82;0.77;;;6.40;99.90;;;;;;5009228;28;20026;-72
2023/01/15 00:06:34;;;;;;;6.93;0.93;;;6.40;99.90;;;;;;5007809;28;20058;-70
2023/01/15 00:09:00;;;;;;;4.70;0.50;;;6.40;99.90;;;;;;5005450;28;20022;-72
2023/01/15 00:11:25;;;;;;;5.35;0.70;;;6.40;99.90;;;;;;5012718;28;20500;-71
2023/01/15 00:13:51;;;;;;;11.40;1.10;;;6.40;99.90;;;;;;5012802;28;20064;-71
2023/01/15 00:16:22;;;;;;;3.40;1.08;;;6.30;99.90;;;;;;5013063;28;20030;-70
2023/01/15 00:18:52;;;;;;;5.88;0.50;;;6.30;99.90;;;;;;5009831;28;20129;-72
2023/01/15 00:21:20;;;;;;;3.75;0.60;;;6.30;99.90;;;;;;5007942;28;20033;-71
2023/01/15 00:29:16;;;;;;;6.68;0.80;;;6.20;99.90;;;;;;5006847;28;20087;-71
2023/01/15 00:31:44;;;;;;;4.32;0.65;;;6.20;99.90;;;;;;5006540;28;20026;-71
2023/01/15 00:34:10;;;;;;;6.15;1.27;;;6.20;99.90;;;;;;5006758;28;20375;-70
2023/01/15 00:36:36;;;;;;;7.28;0.63;;;6.30;99.90;;;;;;5007955;28;20123;-72
2023/01/15 00:39:03;;;;;;;3.65;0.50;;;6.30;99.90;;;;;;5006334;28;20762;-71
2023/01/15 00:41:29;;;;;;;4.22;0.32;;;6.30;99.90;;;;;;5007378;28;20052;-71
2023/01/15 00:43:55;;;;;;;4.57;0.50;;;6.20;99.90;;;;;;5006813;28;20030;-71
2023/01/15 00:46:21;;;;;;;4.40;0.70;;;6.20;99.90;;;;;;5009606;28;20034;-72
2023/01/15 00:48:47;;;;;;;6.65;1.17;;;6.20;99.90;;;;;;5005708;28;20029;-71
2023/01/15 00:51:13;;;;;;;3.80;0.50;;;6.30;99.90;;;;;;5006641;28;20034;-72
2023/01/15 00:53:39;;;;;;;3.35;0.60;;;6.20;99.90;;;;;;5006867;28;20399;-71
2023/01/15 00:56:05;;;;;;;3.22;1.13;;;6.20;99.90;;;;;;5004581;28;20030;-70
2023/01/15 00:58:31;;;;;;;5.10;0.65;;;6.20;99.90;;;;;;5006745;28;20038;-71
2023/01/15 01:00:59;;;;;;;5.82;0.70;;;6.20;99.90;;;;;;5005388;28;20386;-70
2023/01/15 01:03:25;;;;;;;4.75;0.80;;;6.30;99.90;;;;;;5003574;28;20482;-71
2023/01/15 01:05:51;;;;;;;4.20;0.50;;;6.30;99.90;;;;;;5006400;28;20033;-71
2023/01/15 01:08:18;;;;;;;1.95;0.60;;;6.30;99.90;;;;;;5004685;28;20107;-72
2023/01/15 01:10:44;;;;;;;8.45;1.58;;;6.30;99.90;;;;;;5005892;28;20022;-72
2023/01/15 01:13:10;;;;;;;6.75;1.17;;;6.30;99.90;;;;;;5003576;28;20369;-72
2023/01/15 01:15:37;;;;;;;10.18;0.90;;;6.30;99.90;;;;;;5007895;28;20025;-73
2023/01/15 01:18:04;;;;;;;5.15;0.68;;;6.30;99.90;;;;;;5007054;28;20088;-71
2023/01/15 01:20:31;;;;;;;10.93;1.05;;;6.30;99.90;;;;;;5009534;28;20045;-72
2023/01/15 01:22:57;;;;;;;4.32;0.90;;;6.30;99.90;;;;;;5006309;28;20057;-72
2023/01/15 01:25:22;;;;;;;3.25;0.65;;;6.30;99.90;;;;;;5007347;28;20042;-71
2023/01/15 01:27:48;;;;;;;4.75;0.75;;;6.30;99.90;;;;;;5008194;28;20080;-71
2023/01/15 01:30:15;;;;;;;2.90;0.50;;;6.20;99.90;;;;;;5008915;28;20076;-71
2023/01/15 01:32:44;;;;;;;9.07;0.90;;;6.30;99.90;;;;;;5010013;28;20114;-70
2023/01/15 01:35:10;;;;;;;3.97;0.55;;;6.20;99.90;;;;;;5008510;28;20383;-71
2023/01/15 01:37:36;;;;;;;5.63;0.82;;;6.20;99.90;;;;;;5010443;28;20101;-71
2023/01/15 01:40:02;;;;;;;3.08;1.70;;;6.30;99.90;;;;;;5008348;28;20124;-71
2023/01/15 01:42:28;;;;;;;2.65;0.93;;;6.20;99.90;;;;;;5009609;28;20033;-71
2023/01/15 01:45:00;;;;;;;7.70;1.05;;;6.30;99.90;;;;;;5008563;28;20034;-70
2023/01/15 01:47:28;;;;;;;6.95;0.70;;;6.20;99.90;;;;;;5009852;28;20026;-71
2023/01/15 01:49:59;;;;;;;5.70;0.60;;;6.30;99.90;;;;;;5007958;28;20033;-71
2023/01/15 01:52:30;;;;;;;3.67;0.57;;;6.20;99.90;;;;;;5010081;28;20160;-71
2023/01/15 01:54:56;;;;;;;6.60;0.52;;;6.30;99.90;;;;;;5007658;28;20026;-71
2023/01/15 01:57:23;;;;;;;4.25;0.63;;;6.20;99.90;;;;;;5009407;28;20030;-71
2023/01/15 01:59:49;;;;;;;3.22;0.55;;;6.10;99.90;;;;;;5009993;28;20042;-72
2023/01/15 02:02:19;;;;;;;5.85;0.52;;;6.10;99.90;;;;;;5008827;28;20084;-71
2023/01/15 02:04:45;;;;;;;5.75;0.60;;;6.10;99.90;;;;;;5009782;28;20033;-71
2023/01/15 02:07:11;;;;;;;7.22;0.70;;;6.10;99.90;;;;;;5007717;28;20026;-71
2023/01/15 02:09:37;;;;;;;7.10;0.90;;;6.10;99.90;;;;;;5009895;28;20108;-71
2023/01/15 02:12:17;;;;;;;4.28;0.50;;;6.10;99.90;;;;;;5004590;28;20108;-71
2023/01/15 02:15:04;;;;;;;3.10;0.40;;;6.00;99.90;;;;;;5007892;28;20033;-72
2023/01/15 02:17:52;;;;;;;4.22;0.38;;;5.90;99.90;;;;;;5009268;28;20040;-70
2023/01/15 02:20:30;;;;;;;4.35;0.52;;;5.90;99.90;;;;;;5006819;28;20038;-71
2023/01/15 02:23:11;;;;;;;2.83;1.10;;;5.90;99.90;;;;;;5005826;28;20073;-72
2023/01/15 02:25:39;;;;;;;2.60;0.30;;;5.90;99.90;;;;;;5009301;28;20486;-72
2023/01/15 02:28:36;;;;;;;6.10;0.75;;;5.80;99.90;;;;;;5005927;28;20092;-73
2023/01/15 02:31:04;;;;;;;3.92;0.47;;;5.70;99.90;;;;;;5003488;28;20091;-70
2023/01/15 02:33:50;;;;;;;3.85;0.77;;;5.90;99.90;;;;;;5009281;28;20061;-70
2023/01/15 02:36:20;;;;;;;4.32;0.68;;;5.80;99.90;;;;;;5006837;28;20049;-70
2023/01/15 02:38:49;;;;;;;6.50;0.73;;;5.80;99.90;;;;;;5007107;28;20520;-72
2023/01/15 02:41:17;;;;;;;4.72;0.32;;;5.70;99.90;;;;;;5008504;28;20105;-72
2023/01/15 02:43:51;;;;;;;4.18;0.30;;;5.80;99.90;;;;;;5007823;28;20482;-71
2023/01/15 02:46:19;;;;;;;4.00;0.32;;;5.70;99.90;;;;;;5007422;28;20034;-71
2023/01/15 02:48:49;;;;;;;3.05;0.45;;;5.70;99.90;;;;;;5007818;28;20104;-70
2023/01/15 02:51:19;;;;;;;1.20;0.10;;;5.60;99.90;;;;;;5007718;28;20022;-71
2023/01/15 02:53:47;;;;;;;2.03;0.40;;;5.60;99.90;;;;;;5009101;28;20025;-70
2023/01/15 02:56:18;;;;;;;4.07;0.30;;;5.50;99.90;;;;;;5006604;28;20026;-71
2023/01/15 02:58:46;;;;;;;8.73;0.70;;;5.40;99.90;;;;;;5008937;28;20088;-72
2023/01/15 03:01:17;;;;;;;1.52;0.20;;;5.30;99.90;;;;;;5007752;28;20993;-71
2023/01/15 03:03:56;;;;;;;3.97;0.35;;;5.20;99.90;;;;;;5007475;28;20021;-70
2023/01/15 03:06:40;;;;;;;2.08;0.40;;;5.20;99.90;;;;;;5011570;28;20029;-71
2023/01/15 03:09:07;;;;;;;4.97;0.63;;;5.20;99.90;;;;;;5005286;28;20496;-73
2023/01/15 03:11:43;;;;;;;5.68;0.55;;;5.10;99.90;;;;;;5008951;28;20461;-70
2023/01/15 03:14:20;;;;;;;1.45;0.40;;;5.20;99.90;;;;;;5007048;28;20045;-70
2023/01/15 03:16:55;;;;;;;2.95;0.30;;;5.20;99.90;;;;;;5008199;28;20025;-71
2023/01/15 03:19:40;;;;;;;4.38;0.90;;;5.20;99.90;;;;;;5006845;28;20060;-71
2023/01/15 03:22:08;;;;;;;7.63;0.63;;;5.20;99.90;;;;;;5008679;28;20028;-72
2023/01/15 03:24:46;;;;;;;4.28;0.95;;;5.10;99.90;;;;;;5010279;28;20061;-71
2023/01/15 03:27:12;;;;;;;1.83;0.40;;;5.20;99.90;;;;;;5006486;28;20073;-70
2023/01/15 03:29:43;;;;;;;5.10;0.60;;;5.10;99.90;;;;;;5011305;28;20034;-71
2023/01/15 03:32:09;;;;;;;8.15;0.47;;;5.10;99.90;;;;;;5007763;28;20501;-71
2023/01/15 03:34:52;;;;;;;6.55;0.73;;;5.00;99.90;;;;;;5010652;28;20034;-70
2023/01/15 03:37:19;;;;;;;5.85;0.52;;;5.00;99.90;;;;;;5010898;28;20069;-70
2023/01/15 03:39:46;;;;;;;6.10;0.80;;;5.10;99.90;;;;;;5010901;28;20117;-71
2023/01/15 03:42:37;;;;;;;5.68;1.35;;;5.10;99.90;;;;;;5009013;28;20052;-70
2023/01/15 03:45:09;;;;;;;9.00;0.85;;;5.10;99.90;;;;;;5007368;28;20037;-70
2023/01/15 03:48:04;;;;;;;5.97;0.47;;;5.00;99.90;;;;;;5006959;28;20076;-71
2023/01/15 03:50:50;;;;;;;8.95;0.88;;;5.00;99.90;;;;;;5004357;28;20053;-72
2023/01/15 03:53:20;;;;;;;2.88;0.47;;;5.10;99.90;;;;;;5009163;28;20061;-70
2023/01/15 03:56:10;;;;;;;5.50;0.60;;;5.10;99.90;;;;;;5010016;28;20148;-70
2023/01/15 03:58:49;;;;;;;7.40;1.10;;;5.10;99.90;;;;;;5005904;28;20412;-70
2023/01/15 04:01:20;;;;;;;9.75;0.73;;;5.10;99.90;;;;;;5008308;28;20478;-70
2023/01/15 04:03:48;;;;;;;9.48;1.15;;;5.00;99.90;;;;;;5010533;28;20067;-71
2023/01/15 04:06:14;;;;;;;4.10;1.23;;;5.10;99.90;;;;;;5009237;28;20022;-71
2023/01/15 04:08:44;;;;;;;6.75;0.55;;;5.20;99.90;;;;;;5010791;28;20022;-71
2023/01/15 04:11:10;;;;;;;3.90;1.10;;;5.10;99.90;;;;;;5007872;28;20422;-69
2023/01/15 04:13:35;;;;;;;2.88;0.43;;;5.10;99.90;;;;;;5010566;28;20037;-70
2023/01/15 04:16:01;;;;;;;2.58;0.60;;;5.20;99.90;;;;;;5006930;28;20026;-70
2023/01/15 04:18:27;;;;;;;5.13;0.38;;;5.30;99.90;;;;;;5007224;28;20044;-72
2023/01/15 04:20:54;;;;;;;7.53;0.50;;;5.20;99.90;;;;;;5007763;28;20037;-71
2023/01/15 04:23:21;;;;;;;5.25;0.55;;;5.20;99.90;;;;;;5010587;28;20026;-71
2023/01/15 04:25:47;;;;;;;2.35;0.20;;;5.30;99.90;;;;;;5002507;28;20474;-70
2023/01/15 04:28:12;;;;;;;5.28;0.93;;;5.40;99.90;;;;;;5004104;28;20028;-70
2023/01/15 04:30:41;;;;;;;8.02;0.52;;;5.40;99.90;;;;;;5005938;28;20478;-70
2023/01/15 04:33:06;;;;;;;5.90;1.33;;;5.30;99.90;;;;;;5007355;28;20034;-70
2023/01/15 04:35:33;;;;;;;6.93;0.85;;;5.40;99.90;;;;;;5007661;28;20049;-70
2023/01/15 04:37:59;;;;;;;3.10;0.55;;;5.40;99.90;;;;;;5007543;28;20072;-70
2023/01/15 04:45:56;;;;;;;4.03;0.70;;;5.40;99.90;;;;;;5000328;28;20088;-70
2023/01/15 04:48:22;;;;;;;6.50;0.70;;;5.40;99.90;;;;;;5009296;28;20033;-71
2023/01/15 04:50:49;;;;;;;8.43;0.80;;;5.50;99.90;;;;;;5009888;28;20065;-70
2023/01/15 04:53:15;;;;;;;5.57;0.50;;;5.50;99.90;;;;;;5008584;28;20076;-70
2023/01/15 04:55:41;;;;;;;5.47;0.50;;;5.70;99.90;;;;;;5009658;28;20026;-70
2023/01/15 04:58:07;;;;;;;7.50;0.60;;;5.60;99.90;;;;;;5008094;28;20061;-69
2023/01/15 05:00:32;;;;;;;3.25;0.70;;;5.70;99.90;;;;;;5006384;28;20470;-72
2023/01/15 05:02:58;;;;;;;4.53;0.50;;;5.70;99.90;;;;;;5007394;28;20033;-71
2023/01/15 05:05:24;;;;;;;5.07;0.38;;;5.70;99.90;;;;;;5009116;28;20033;-71
2023/01/15 05:07:50;;;;;;;8.95;0.85;;;5.80;99.90;;;;;;5009707;28;20087;-69
2023/01/15 05:10:16;;;;;;;8.65;0.77;;;5.80;99.90;;;;;;5005705;28;20084;-71
2023/01/15 05:12:42;;;;;;;8.20;0.60;;;5.80;99.90;;;;;;5007311;28;20034;-70
2023/01/15 05:15:08;;;;;;;6.65;1.00;;;5.70;99.90;;;;;;5006951;28;20037;-71
2023/01/15 05:17:33;;;;;;;8.77;0.80;;;5.70;99.90;;;;;;5009427;28;20034;-70
2023/01/15 05:19:59;;;;;;;5.97;1.42;;;5.80;99.90;;;;;;5006975;28;20045;-69
2023/01/15 05:22:25;;;;;;;7.32;1.45;;;5.80;99.90;;;;;;5009127;28;20029;-70
2023/01/15 05:24:51;;;;;;;6.05;0.52;;;5.70;99.90;;;;;;5008235;28;20071;-70
2023/01/15 05:27:17;;;;;;;6.88;0.73;;;5.60;99.90;;;;;;5006919;28;20148;-70
2023/01/15 05:29:42;;;;;;;7.57;1.30;;;5.60;99.90;;;;;;5008907;28;20022;-71
2023/01/15 05:32:08;;;;;;;12.27;0.95;;;5.70;99.90;;;;;;5008124;28;20068;-71
2023/01/15 05:34:35;;;;;;;8.02;0.77;;;5.50;99.90;;;;;;5007039;28;20030;-68
2023/01/15 05:37:00;;;;;;;6.82;0.80;;;5.50;99.90;;;;;;5007982;28;20069;-70
2023/01/15 05:39:26;;;;;;;4.20;0.57;;;5.60;99.90;;;;;;5008343;28;20092;-69
2023/01/15 05:41:52;;;;;;;4.20;0.38;;;5.60;99.90;;;;;;4997902;28;20037;-69
2023/01/15 05:44:26;;;;;;;9.18;0.50;;;5.50;99.90;;;;;;5000604;28;20438;-70
2023/01/15 05:46:56;;;;;;;5.07;0.90;;;5.50;99.90;;;;;;5009357;28;20501;-70
2023/01/15 05:49:24;;;;;;;5.07;0.40;;;5.50;99.90;;;;;;5002984;28;20118;-71
2023/01/15 05:51:51;;;;;;;6.03;1.20;;;5.50;99.90;;;;;;5009738;28;20049;-70
2023/01/15 05:54:22;;;;;;;3.28;1.17;;;5.70;99.90;;;;;;5005993;28;20484;-72
2023/01/15 05:56:48;;;;;;;5.38;0.32;;;5.60;99.90;;;;;;5007230;28;20026;-69
2023/01/15 05:59:19;;;;;;;4.45;0.88;;;5.60;99.90;;;;;;5006440;28;20040;-71
2023/01/15 06:01:45;;;;;;;4.10;0.35;;;5.70;99.90;;;;;;5009266;28;20042;-71
2023/01/15 06:04:16;;;;;;;2.22;0.68;;;5.50;99.90;;;;;;5007001;28;20037;-70
2023/01/15 06:06:42;;;;;;;1.70;0.40;;;5.50;99.90;;;;;;5009505;28;20054;-71
2023/01/15 06:09:08;;;;;;;2.97;0.25;;;5.50;99.90;;;;;;5005662;28;20108;-70
2023/01/15 06:11:34;;;;;;;4.20;0.50;;;5.50;99.90;;;;;;5007869;28;20105;-71
2023/01/15 06:14:00;;;;;;;5.55;0.45;;;5.40;99.90;;;;;;5009139;28;20097;-71
2023/01/15 06:16:26;;;;;;;2.72;0.30;;;5.40;99.90;;;;;;5012816;28;20088;-70
2023/01/15 06:18:52;;;;;;;2.42;0.30;;;5.30;99.90;;;;;;5008444;28;20482;-70
2023/01/15 06:21:18;;;;;;;4.35;0.40;;;5.40;99.90;;;;;;5012795;28;20066;-70
2023/01/15 06:23:44;;;;;;;2.55;0.68;;;5.40;99.90;;;;;;5012611;28;20496;-70
2023/01/15 06:26:16;;;;;;;2.97;0.50;;;5.40;99.90;;;;;;5006174;28;20618;-70
2023/01/15 06:28:42;;;;;;;2.38;0.40;;;5.40;99.90;;;;;;5011596;28;20492;-71
2023/01/15 06:31:10;;;;;;;8.05;0.70;;;5.50;99.90;;;;;;5010296;28;20026;-70
2023/01/15 06:33:36;;;;;;;2.30;0.93;;;5.70;99.90;;;;;;5004973;28;20026;-69
2023/01/15 06:36:07;;;;;;;4.57;0.85;;;5.60;99.90;;;;;;5008993;28;20046;-70
2023/01/15 06:38:33;;;;;;;4.80;0.57;;;5.60;99.90;;;;;;5009547;28;20030;-70
2023/01/15 06:41:00;;;;;;;5.05;0.38;;;5.60;99.90;;;;;;5010234;28;20536;-71
2023/01/15 06:48:56;;;;;;;10.73;0.82;;;5.70;99.90;;;;;;5008627;28;20087;-71
2023/01/15 06:51:22;;;;;;;8.57;1.17;;;5.80;99.90;;;;;;5012286;28;20041;-69
2023/01/15 06:53:48;;;;;;;4.15;1.02;;;5.90;99.90;;;;;;5012059;28;20125;-70
2023/01/15 06:56:14;;;;;;;7.90;0.90;;;6.10;99.90;;;;;;5009767;28;20034;-70
2023/01/15 06:58:41;;;;;;;7.47;0.90;;;6.00;99.90;;;;;;5011190;28;20389;-70
2023/01/15 07:01:11;;;;;;;4.90;0.77;;;5.80;99.90;;;;;;5010255;28;20529;-70
2023/01/15 07:03:36;;;;;;;4.82;0.80;;;5.80;99.90;;;;;;5011926;28;20018;-70
2023/01/15 07:06:10;;;;;;;2.50;0.50;;;5.90;99.90;;;;;;5008280;28;20033;-70
2023/01/15 07:08:37;;;;;;;5.35;0.88;;;5.80;99.90;;;;;;5012063;28;20109;-71
2023/01/15 07:11:07;;;;;;;7.55;0.70;;;5.90;99.90;;;;;;5009568;28;20056;-67
2023/01/15 07:13:34;;;;;;;8.70;1.45;;;5.80;99.90;;;;;;5011737;28;20064;-71
2023/01/15 07:16:01;;;;;;;8.65;1.23;;;5.90;99.90;;;;;;5024053;28;20045;-70
2023/01/15 07:18:29;;;;;;;7.20;0.93;;;5.90;99.90;;;;;;5011550;28;20585;-71
2023/01/15 07:20:56;;;;;;;9.27;1.25;;;5.80;99.90;;;;;;5008988;28;20042;-70
2023/01/15 07:23:24;;;;;;;7.18;1.45;;;5.90;99.90;;;;;;5011487;28;20079;-71
2023/01/15 07:25:52;;;;;;;6.15;0.93;;;5.90;99.90;;;;;;5010170;28;20436;-69
2023/01/15 07:28:19;;;;;;;6.32;0.80;;;6.00;99.90;;;;;;5009321;28;20398;-71
2023/01/15 07:30:45;;;;;;;8.57;1.67;;;6.20;99.90;;;;;;5011876;28;20022;-71
2023/01/15 07:33:11;;;;;;;8.82;1.20;;;6.30;99.90;;;;;;5008179;28;20045;-71
2023/01/15 07:35:37;;;;;;;8.00;1.40;;;6.20;99.90;;;;;;5008922;28;20054;-70
2023/01/15 07:38:03;;;;;;;4.40;0.80;;;6.30;99.90;;;;;;5008654;28;20034;-70
2023/01/15 07:40:29;;;;;;;4.90;0.95;;;6.40;99.90;;;;;;5003331;28;20037;-70
2023/01/15 07:51:11;;;;;;;8.98;1.10;;;6.50;99.90;;;;;;5013568;28;20125;-70
2023/01/15 07:53:36;;;;;;;11.77;1.92;;;6.40;99.90;;;;;;5014078;28;20050;-70
2023/01/15 07:56:02;;;;;;;11.43;1.00;;;6.40;99.90;;;;;;5011893;28;20055;-67
2023/01/15 07:58:28;;;;;;;6.80;0.90;;;6.30;99.90;;;;;;5013929;28;20030;-70
2023/01/15 08:00:54;;;;;;;10.20;1.00;;;6.30;99.90;;;;;;5012145;28;20401;-71
2023/01/15 08:03:19;;;;;;;7.38;1.58;;;6.40;99.90;;;;;;5010029;28;20034;-71
2023/01/15 08:05:45;;;;;;;5.43;0.60;;;6.60;99.90;;;;;;5009143;28;20030;-71
2023/01/15 08:08:16;;;;;;;11.77;2.00;;;6.70;99.90;;;;;;5008567;28;20493;-71
2023/01/15 08:15:11;;;;;;;10.73;1.02;;;6.60;99.90;;;;;;5009156;28;20045;-71
2023/01/15 08:16:11;;;;;;;2.33;0.63;;;6.60;99.90;;;;;;5002396;28;20585;-70
2023/01/15 08:18:37;;;;;;;12.40;1.08;;;6.60;99.90;;;;;;5009043;28;20041;-71
2023/01/15 08:21:04;;;;;;;7.63;1.20;;;6.60;99.90;;;;;;5008019;28;20042;-70
2023/01/15 08:23:29;;;;;;;6.43;0.75;;;6.60;99.90;;;;;;5009846;28;20045;-71
2023/01/15 08:25:59;;;;;;;8.85;1.33;;;6.70;99.90;;;;;;5008365;28;20068;-71
2023/01/15 08:28:25;;;;;;;7.72;1.08;;;6.70;99.90;;;;;;5008619;28;20540;-71
2023/01/15 08:30:51;;;;;;;3.72;0.98;;;6.70;99.90;;;;;;5010194;28;20029;-72
2023/01/15 08:33:17;;;;;;;5.05;2.22;;;6.70;99.90;;;;;;5006155;28;20026;-70
2023/01/15 08:35:43;;;;;;;9.20;1.92;;;6.70;99.90;;;;;;5009678;28;20077;-70
2023/01/15 08:38:08;;;;;;;8.38;1.23;;;6.60;99.90;;;;;;5007796;28;20390;-71
2023/01/15 08:40:57;;;;;;;10.45;0.98;;;6.50;99.90;;;;;;5008718;28;20045;-70
2023/01/15 08:43:21;;;;;;;5.95;1.00;;;6.70;99.90;;;;;;5001291;28;20029;-70
2023/01/15 08:45:46;;;;;;;9.07;1.20;;;6.70;99.90;;;;;;5010043;28;20359;-70
2023/01/15 08:48:12;;;;;;;6.20;0.68;;;6.70;99.90;;;;;;5007159;28;20026;-69
2023/01/15 08:50:38;;;;;;;5.10;1.67;;;6.60;99.90;;;;;;5010209;28;20030;-70
2023/01/15 08:53:03;;;;;;;7.88;1.00;;;6.50;99.90;;;;;;5007416;28;20034;-70
2023/01/15 08:55:29;;;;;;;10.07;1.30;;;6.60;99.90;;;;;;5009903;28;20025;-71
2023/01/15 08:57:55;;;;;;;11.05;1.73;;;6.60;99.90;;;;;;5007714;28;20391;-72
2023/01/15 09:00:21;;;;;;;10.80;2.88;;;6.60;99.90;;;;;;5009398;28;20038;-70
2023/01/15 09:02:46;;;;;;;4.00;0.88;;;6.60;99.90;;;;;;5008625;28;20022;-70
2023/01/15 09:05:12;;;;;;;5.20;1.10;;;6.60;99.90;;;;;;5003035;28;20030;-70
2023/01/15 09:07:38;;;;;;;7.20;0.95;;;6.70;99.90;;;;;;5009835;28;20425;-73
2023/01/15 09:10:04;;;;;;;8.50;0.80;;;6.60;99.90;;;;;;5008260;28;20485;-71
2023/01/15 09:12:30;;;;;;;7.47;1.77;;;6.60;99.90;;;;;;5009375;28;20034;-72
2023/01/15 09:14:56;;;;;;;7.07;1.00;;;6.70;99.90;;;;;;5008178;28;20065;-71
2023/01/15 09:17:21;;;;;;;5.25;1.40;;;6.60;99.90;;;;;;5008229;28;20022;-71
2023/01/15 09:19:47;;;;;;;6.55;1.08;;;6.70;99.90;;;;;;5009444;28;20121;-71
2023/01/15 09:22:13;;;;;;;6.93;1.20;;;6.70;99.90;;;;;;5007512;28;20112;-70
2023/01/15 09:24:38;;;;;;;5.38;0.82;;;6.70;99.90;;;;;;5006585;28;20057;-71
2023/01/15 09:27:04;;;;;;;11.60;1.02;;;6.70;99.90;;;;;;5007730;28;20441;-71
2023/01/15 09:29:30;;;;;;;8.23;0.70;;;6.70;99.90;;;;;;5009609;28;20294;-71
2023/01/15 09:31:56;;;;;;;13.68;1.27;;;6.70;99.90;;;;;;5007742;28;20393;-69
2023/01/15 09:34:21;;;;;;;7.63;1.73;;;6.80;99.90;;;;;;5000594;28;20143;-71
2023/01/15 09:36:47;;;;;;;6.65;1.08;;;6.80;99.90;;;;;;5008936;28;20406;-73
2023/01/15 09:39:13;;;;;;;7.43;1.70;;;6.90;99.90;;;;;;5007499;28;20077;-72
2023/01/15 09:42:13;;;;;;;12.10;1.95;;;7.00;99.90;;;;;;5008756;28;20107;-69
2023/01/15 09:45:00;;;;;;;6.95;1.50;;;7.10;99.90;;;;;;5005621;28;20033;-73
2023/01/15 09:47:39;;;;;;;10.05;1.70;;;7.20;99.90;;;;;;5009322;28;20029;-71
2023/01/15 09:50:22;;;;;;;6.40;1.02;;;7.30;99.90;;;;;;5009847;28;20022;-71
2023/01/15 09:53:03;;;;;;;7.72;0.98;;;7.30;99.90;;;;;;5013178;28;20030;-71
2023/01/15 09:55:35;;;;;;;7.38;0.93;;;7.40;99.90;;;;;;5012720;28;20037;-71
2023/01/15 09:58:04;;;;;;;11.00;1.52;;;7.50;99.90;;;;;;5010862;28;20095;-70
2023/01/15 10:00:50;;;;;;;6.07;1.10;;;7.50;99.90;;;;;;5013033;28;20061;-71
2023/01/15 10:03:53;;;;;;;8.88;0.95;;;7.50;99.90;;;;;;5011504;28;20474;-70
2023/01/15 10:07:04;;;;;;;9.32;1.17;;;7.50;99.90;;;;;;5006474;28;20030;-71
2023/01/15 10:09:36;;;;;;;10.85;1.10;;;7.60;99.90;;;;;;4952295;29;20032;-71
2023/01/15 10:15:01;;;;;;;9.65;1.10;;;7.60;99.90;;;;;;4951273;29;20038;-71
2023/01/15 10:17:43;;;;;;;12.35;1.42;;;7.50;99.90;;;;;;4955586;28;20507;-71
2023/01/15 10:20:30;;;;;;;12.43;1.52;;;7.50;99.90;;;;;;4950493;28;20094;-70
2023/01/15 10:23:33;;;;;;;7.75;1.73;;;7.50;99.90;;;;;;4949283;28;20139;-70
2023/01/15 10:26:09;;;;;;;10.30;1.90;;;7.40;99.90;;;;;;4947879;29;20500;-71
2023/01/15 10:28:58;;;;;;;9.48;1.33;;;7.50;99.90;;;;;;4949490;29;20590;-70
2023/01/15 10:31:36;;;;;;;8.98;1.42;;;7.50;99.90;;;;;;4945759;29;20179;-71
2023/01/15 10:34:26;;;;;;;8.30;1.65;;;7.60;99.90;;;;;;4947780;28;20515;-70
2023/01/15 10:37:10;;;;;;;6.68;1.88;;;7.80;99.90;;;;;;4933310;29;20109;-70
2023/01/15 10:39:52;;;;;;;9.27;1.42;;;7.90;99.90;;;;;;4946622;29;20542;-70
2023/01/15 10:42:39;;;;;;;6.60;1.85;;;7.90;99.90;;;;;;4953079;28;20409;-71
2023/01/15 10:45:19;;;;;;;8.10;1.25;;;7.80;99.90;;;;;;5009069;28;20022;-71
2023/01/15 10:47:52;;;;;;;2.20;0.70;;;7.70;99.90;;;;;;5011607;28;20022;-70
2023/01/15 10:50:23;;;;;;;5.72;0.93;;;7.70;99.90;;;;;;5010357;28;20030;-72
2023/01/15 10:53:16;;;;;;;9.52;1.30;;;7.70;99.90;;;;;;5007902;28;20386;-71
2023/01/15 10:55:47;;;;;;;8.02;1.15;;;7.80;99.90;;;;;;5010838;28;20034;-72
2023/01/15 10:58:13;;;;;;;8.30;0.98;;;7.80;99.90;;;;;;5009175;28;20026;-72
2023/01/15 11:00:39;;;;;;;3.35;0.93;;;7.80;99.90;;;;;;5008381;28;20042;-72
2023/01/15 11:03:15;;;;;;;5.45;0.98;;;7.80;99.90;;;;;;5004154;28;20037;-69
2023/01/15 11:05:44;;;;;;;11.32;1.52;;;7.80;99.90;;;;;;5010592;28;20045;-71
2023/01/15 11:08:31;;;;;;;10.93;1.58;;;7.90;99.90;;;;;;5009538;28;20022;-71
2023/01/15 11:11:15;;;;;;;8.40;1.27;;;7.90;99.90;;;;;;5007815;28;20044;-71
2023/01/15 11:21:51;;;;;;;7.30;1.00;;;8.20;99.90;;;;;;5010450;28;20045;-71
2023/01/15 11:24:17;;;;;;;5.30;0.80;;;8.30;99.90;;;;;;5007444;28;20393;-73
2023/01/15 11:26:50;;;;;;;9.75;0.82;;;8.30;99.90;;;;;;5008860;28;20473;-72
2023/01/15 11:29:29;;;;;;;8.52;1.15;;;8.30;99.90;;;;;;5007001;28;20065;-71
2023/01/15 11:31:54;;;;;;;4.45;0.85;;;8.40;99.90;;;;;;5008549;28;20064;-72
2023/01/15 11:34:21;;;;;;;7.72;1.23;;;8.40;99.90;;;;;;5009916;28;20053;-69
2023/01/15 11:36:47;;;;;;;6.57;1.48;;;8.50;99.90;;;;;;5009945;28;20575;-71
2023/01/15 11:39:21;;;;;;;8.30;0.73;;;8.60;99.90;;;;;;5008193;28;20057;-70
2023/01/15 11:52:59;;;;;;;3.03;0.60;;;8.30;99.90;;;;;;5009630;28;20041;-70
2023/01/15 11:55:26;;;;;;;8.05;0.80;;;8.50;99.90;;;;;;5010362;28;20026;-71
2023/01/15 11:57:54;;;;;;;7.78;0.93;;;8.60;99.90;;;;;;5006202;28;20034;-69
2023/01/15 12:00:23;;;;;;;8.93;1.35;;;8.90;99.90;;;;;;5008106;28;20045;-70
2023/01/15 12:02:52;;;;;;;3.97;1.02;;;8.90;99.90;;;;;;5010099;28;20440;-71
2023/01/15 12:05:25;;;;;;;6.40;0.88;;;9.10;99.90;;;;;;5009164;28;20040;-70
2023/01/15 12:07:56;;;;;;;3.30;1.20;;;9.00;99.90;;;;;;5010773;28;20017;-71
2023/01/15 12:13:25;;;;;;;6.35;1.52;;;9.00;99.90;;;;;;5006718;28;20077;-70
2023/01/15 12:16:12;;;;;;;9.32;1.25;;;9.60;99.90;;;;;;5010430;28;20045;-71
2023/01/15 12:18:56;;;;;;;2.47;0.65;;;10.20;99.90;;;;;;5010369;28;20030;-72
2023/01/15 12:21:47;;;;;;;5.25;1.15;;;10.50;99.90;;;;;;5002314;28;20056;-70
2023/01/15 12:24:46;;;;;;;5.50;0.90;;;10.60;99.90;;;;;;5007901;28;20028;-71
2023/01/15 12:27:20;;;;;;;6.28;0.98;;;10.70;99.90;;;;;;5007492;28;20045;-71
2023/01/15 12:30:12;;;;;;;8.55;1.00;;;10.50;99.90;;;;;;5010243;28;20026;-70
2023/01/15 12:32:45;;;;;;;9.18;1.02;;;10.50;99.90;;;;;;5003722;28;20519;-70
2023/01/15 12:35:30;;;;;;;3.67;0.70;;;10.80;99.90;;;;;;5007237;28;20125;-73
2023/01/15 12:38:10;;;;;;;6.18;1.48;;;10.80;99.90;;;;;;4999915;28;20061;-69
2023/01/15 12:41:01;;;;;;;5.78;1.20;;;10.80;99.90;;;;;;5009317;28;20120;-69
2023/01/15 12:46:17;;;;;;;5.05;1.73;;;11.10;99.90;;;;;;5019191;28;20136;-71
2023/01/15 12:48:56;;;;;;;7.82;1.13;;;10.90;99.90;;;;;;5009971;28;20093;-70
2023/01/15 12:52:07;;;;;;;6.60;1.33;;;10.70;99.90;;;;;;5005606;28;20036;-71
2023/01/15 12:54:50;;;;;;;3.35;0.60;;;10.70;99.90;;;;;;4949862;29;20500;-71
2023/01/15 12:57:30;;;;;;;5.68;1.40;;;10.90;99.90;;;;;;4947571;29;20486;-72
2023/01/15 13:00:38;;;;;;;5.70;1.05;;;11.00;99.90;;;;;;4947059;29;20035;-69
2023/01/15 13:03:25;;;;;;;6.50;0.90;;;10.50;99.90;;;;;;4933290;28;20043;-71
2023/01/15 13:05:57;;;;;;;7.18;0.85;;;9.90;99.90;;;;;;4949531;29;20400;-71
2023/01/15 13:08:32;;;;;;;6.47;0.95;;;10.30;99.90;;;;;;4949576;29;20043;-70
2023/01/15 13:10:57;;;;;;;4.63;0.93;;;10.70;99.90;;;;;;4947165;29;20558;-71
2023/01/15 13:13:29;;;;;;;5.20;0.70;;;10.70;99.90;;;;;;4948824;29;20066;-71
2023/01/15 13:15:55;;;;;;;3.50;0.85;;;11.10;99.90;;;;;;4948151;29;20062;-71
2023/01/15 13:18:34;;;;;;;9.00;0.98;;;11.30;99.90;;;;;;4938497;29;20507;-71
2023/01/15 13:21:23;;;;;;;8.30;1.27;;;10.90;99.90;;;;;;4946818;28;20519;-70
2023/01/15 13:24:42;;;;;;;7.55;0.90;;;10.50;99.90;;;;;;4951298;28;20027;-70
2023/01/15 13:27:26;;;;;;;12.30;1.85;;;9.70;99.90;;;;;;4856632;29;20033;-70
2023/01/15 13:30:04;;;;;;;5.95;0.90;;;9.20;99.90;;;;;;4929923;29;20071;-70
2023/01/15 13:32:47;;;;;;;10.63;1.45;;;9.90;99.90;;;;;;4933673;29;20160;-70
2023/01/15 13:35:29;;;;;;;9.10;1.48;;;10.50;99.90;;;;;;4932313;29;20048;-71
2023/01/15 13:37:56;;;;;;;;;;;11.20;99.90;;;;;;4932481;29;20032;-70
2023/01/15 13:40:52;;;;;;;5.63;1.35;;;11.80;99.90;;;;;;4933182;29;20394;-73
2023/01/15 13:43:35;;;;;;;9.25;1.33;;;12.30;99.90;;;;;;4912938;29;20067;-71
2023/01/15 13:46:08;;;;;;;3.83;1.00;;;12.30;99.90;;;;;;4924207;29;20223;-71
2023/01/15 13:48:43;;;;;;;8.38;1.50;;;11.90;99.90;;;;;;4933724;29;20020;-73
2023/01/15 13:51:22;;;;;;;10.70;1.25;;;11.50;99.90;;;;;;4931366;29;20071;-72
2023/01/15 13:53:49;;;;;;;11.40;2.15;;;10.20;99.90;;;;;;4933422;29;20226;-71
2023/01/15 13:56:26;;;;;;;12.68;1.83;;;9.40;99.90;;;;;;4931499;29;20406;-71
2023/01/15 13:58:57;;;;;;;12.07;2.20;;;9.00;99.90;;;;;;5006028;28;20477;-71
2023/01/15 14:01:32;;;;;;;10.07;1.25;;;8.80;99.90;;;;;;5011245;28;20037;-71
2023/01/15 14:04:14;;;;;;;9.63;1.48;;;8.70;99.90;;;;;;5011493;28;20030;-69
2023/01/15 14:06:48;;;;;;;5.90;1.27;;;8.60;99.90;;;;;;5007336;28;20030;-71
2023/01/15 14:09:30;;;;;;;6.45;0.70;;;8.50;99.90;;;;;;5002500;28;20033;-70
2023/01/15 14:12:35;;;;;;;4.90;0.95;;;8.20;99.90;;;;;;5009714;28;20405;-71
2023/01/15 14:15:07;;;;;;;1.90;0.80;;;7.90;99.90;;;;;;5003717;28;20508;-71